Time;durP1;ratioP1;P1;durP2;ratioP2;P2;SDS_P1;SDS_P2;PMS_P1;PMS_P2;Temp;Humidity;BMP_temperature;BMP_pressure;BME280_temperature;BME280_humidity;BME280_pressure;Samples;Min_cycle;Max_cycle;Signal;HPM_P1;HPM_P2
2023/02/07 00:01:29;;;;;;;20.13;10.45;;;;;;;-146.47;100.00;65468.63;4705573;30;20046;-70
2023/02/07 00:03:56;;;;;;;21.33;10.95;;;;;;;-146.47;100.00;65468.63;4700227;30;20061;-72
2023/02/07 00:06:26;;;;;;;22.60;11.38;;;;;;;-146.47;100.00;65468.63;4702893;30;20049;-69
2023/02/07 00:08:52;;;;;;;20.80;10.85;;;;;;;-146.47;100.00;65468.63;4698938;30;20127;-70
2023/02/07 00:11:19;;;;;;;19.80;10.80;;;;;;;-146.47;100.00;65468.63;4702212;30;20045;-70
2023/02/07 00:13:47;;;;;;;23.50;11.80;;;;;;;-146.47;100.00;65468.63;4713292;30;20058;-70
2023/02/07 00:16:13;;;;;;;18.05;9.50;;;;;;;-146.47;100.00;65468.63;4698996;30;20094;-70
2023/02/07 00:18:39;;;;;;;28.58;11.40;;;;;;;-146.47;100.00;65468.63;4698408;30;20053;-70
2023/02/07 00:21:08;;;;;;;22.95;11.70;;;;;;;-146.47;100.00;65468.63;4699869;30;20049;-70
2023/02/07 00:23:35;;;;;;;21.42;11.25;;;;;;;-146.47;100.00;65468.63;4702004;30;20609;-70
2023/02/07 00:26:01;;;;;;;24.23;11.48;;;;;;;-146.47;100.00;65468.63;4706608;30;20054;-70
2023/02/07 00:28:27;;;;;;;25.92;11.85;;;;;;;-146.47;100.00;65468.63;4700116;30;20049;-71
2023/02/07 00:31:07;;;;;;;20.08;10.82;;;;;;;-146.47;100.00;65468.63;4711410;30;20053;-70
2023/02/07 00:33:37;;;;;;;24.70;11.98;;;;;;;-146.47;100.00;65468.63;4698813;30;20037;-70
2023/02/07 00:36:06;;;;;;;22.52;11.48;;;;;;;-146.47;100.00;65468.63;4703663;30;20053;-70
2023/02/07 00:38:32;;;;;;;16.48;7.70;;;;;;;-146.47;100.00;65468.63;4699104;30;20045;-70
2023/02/07 00:41:00;;;;;;;24.77;12.07;;;;;;;-146.47;100.00;65468.63;4701184;30;20593;-71
2023/02/07 00:43:26;;;;;;;25.83;12.00;;;;;;;-146.47;100.00;65468.63;4697992;30;20049;-70
2023/02/07 00:45:52;;;;;;;23.05;11.55;;;;;;;-146.47;100.00;65468.63;4703036;30;20041;-70
2023/02/07 00:48:17;;;;;;;27.13;11.55;;;;;;;-146.47;100.00;65468.63;4698454;30;20053;-70
2023/02/07 00:50:43;;;;;;;24.70;11.77;;;;;;;-146.47;100.00;65468.63;4699238;30;20142;-71
2023/02/07 00:53:09;;;;;;;24.63;11.63;;;;;;;-146.47;100.00;65468.63;4705178;30;20069;-70
2023/02/07 00:55:34;;;;;;;22.50;11.63;;;;;;;-146.47;100.00;65468.63;4703876;30;20045;-70
2023/02/07 00:58:00;;;;;;;21.92;11.43;;;;;;;-146.47;100.00;65468.63;4699485;30;20057;-70
2023/02/07 01:00:25;;;;;;;23.17;11.95;;;;;;;-146.47;100.00;65468.63;4703049;30;20051;-71
2023/02/07 01:02:51;;;;;;;24.33;10.60;;;;;;;-146.47;100.00;65468.63;4699264;30;20104;-70
2023/02/07 01:05:16;;;;;;;27.10;11.43;;;;;;;-146.47;100.00;65468.63;4697387;30;20056;-70
2023/02/07 01:07:42;;;;;;;22.17;10.38;;;;;;;-146.47;100.00;65468.63;4697491;30;20050;-70
2023/02/07 01:10:09;;;;;;;21.80;11.18;;;;;;;-146.47;100.00;65468.63;4707569;30;20505;-70
2023/02/07 01:12:35;;;;;;;20.30;10.80;;;;;;;-146.47;100.00;65468.63;4703672;30;20077;-70
2023/02/07 01:15:00;;;;;;;22.38;11.75;;;;;;;-146.47;100.00;65468.63;4700367;30;20054;-71
2023/02/07 01:17:26;;;;;;;23.25;11.52;;;;;;;-146.47;100.00;65468.63;4703711;30;20045;-71
2023/02/07 01:19:57;;;;;;;22.38;10.80;;;;;;;-146.47;100.00;65468.63;4708447;30;20049;-70
2023/02/07 01:22:23;;;;;;;21.02;10.68;;;;;;;-146.47;100.00;65468.63;4702998;30;20095;-70
2023/02/07 01:24:49;;;;;;;22.17;11.45;;;;;;;-146.47;100.00;65468.63;4698731;30;20057;-70
2023/02/07 01:27:14;;;;;;;21.63;10.38;;;;;;;-146.47;100.00;65468.63;4699126;30;20608;-71
2023/02/07 01:29:40;;;;;;;19.95;10.13;;;;;;;-146.47;100.00;65468.63;4700867;30;20530;-71
2023/02/07 01:32:05;;;;;;;19.90;8.88;;;;;;;-146.47;100.00;65468.63;4700721;30;20109;-70
2023/02/07 01:34:31;;;;;;;25.15;11.48;;;;;;;-146.47;100.00;65468.63;4702255;30;20057;-71
2023/02/07 01:36:56;;;;;;;23.13;10.07;;;;;;;-146.47;100.00;65468.63;4701803;30;20057;-71
2023/02/07 01:39:22;;;;;;;21.70;10.57;;;;;;;-146.47;100.00;65468.63;4699584;30;20053;-71
2023/02/07 01:41:47;;;;;;;21.77;10.23;;;;;;;-146.47;100.00;65468.63;4704844;30;20045;-71
2023/02/07 01:44:22;;;;;;;19.73;9.55;;;;;;;-146.47;100.00;65468.63;4702358;30;20136;-71
2023/02/07 01:46:49;;;;;;;22.20;9.77;;;;;;;-146.47;100.00;65468.63;4699444;30;20128;-71
2023/02/07 01:49:17;;;;;;;22.70;10.50;;;;;;;-146.47;100.00;65468.63;4699995;30;20193;-70
2023/02/07 01:52:05;;;;;;;20.83;10.20;;;;;;;-146.47;100.00;65468.63;4701856;30;20053;-71
2023/02/07 01:54:33;;;;;;;20.20;9.93;;;;;;;-146.47;100.00;65468.63;4702821;30;20048;-71
2023/02/07 01:57:04;;;;;;;22.88;10.85;;;;;;;-146.47;100.00;65468.63;4703891;30;20523;-71
2023/02/07 01:59:32;;;;;;;16.50;8.93;;;;;;;-146.47;100.00;65468.63;4704539;30;20049;-71
2023/02/07 02:02:01;;;;;;;20.30;9.45;;;;;;;-146.47;100.00;65468.63;4704479;30;20052;-71
2023/02/07 02:04:27;;;;;;;19.48;9.55;;;;;;;-146.47;100.00;65468.63;4700859;30;20049;-71
2023/02/07 02:06:53;;;;;;;22.02;10.85;;;;;;;-146.47;100.00;65468.63;4696759;30;20060;-71
2023/02/07 02:09:19;;;;;;;20.38;9.27;;;;;;;-146.47;100.00;65468.63;4709142;30;20470;-71
2023/02/07 02:12:09;;;;;;;21.20;10.20;;;;;;;-146.47;100.00;65468.63;4698468;30;20050;-71
2023/02/07 02:14:57;;;;;;;20.67;9.38;;;;;;;-146.47;100.00;65468.63;4699663;30;20101;-71
2023/02/07 02:17:28;;;;;;;21.73;9.77;;;;;;;-146.47;100.00;65468.63;4718285;30;20058;-70
2023/02/07 02:20:36;;;;;;;21.05;10.50;;;;;;;-146.47;100.00;65468.63;4701000;30;20573;-70
2023/02/07 02:23:29;;;;;;;22.02;9.45;;;;;;;-146.47;100.00;65468.63;4698350;30;20048;-70
2023/02/07 02:26:22;;;;;;;19.40;8.95;;;;;;;-146.47;100.00;65468.63;4705852;30;20423;-70
2023/02/07 02:29:19;;;;;;;18.85;8.95;;;;;;;-146.47;100.00;65468.63;4711030;30;20052;-70
2023/02/07 02:32:18;;;;;;;19.80;8.95;;;;;;;-146.47;100.00;65468.63;4697154;30;20057;-69
2023/02/07 02:34:56;;;;;;;19.55;8.98;;;;;;;-146.47;100.00;65468.63;4704672;30;20062;-70
2023/02/07 02:37:34;;;;;;;19.20;9.38;;;;;;;-146.47;100.00;65468.63;4699821;30;20062;-70
2023/02/07 02:40:07;;;;;;;22.85;9.32;;;;;;;-146.47;100.00;65468.63;4715087;30;20085;-71
2023/02/07 02:43:08;;;;;;;19.15;10.05;;;;;;;-146.47;100.00;65468.63;4704514;30;20049;-70
2023/02/07 02:45:50;;;;;;;21.42;9.57;;;;;;;-146.47;100.00;65468.63;4699830;30;20490;-70
2023/02/07 02:48:17;;;;;;;20.10;8.88;;;;;;;-146.47;100.00;65468.63;4706702;30;20063;-70
2023/02/07 02:50:47;;;;;;;19.33;9.85;;;;;;;-146.47;100.00;65468.63;4703172;30;20152;-70
2023/02/07 02:53:14;;;;;;;20.98;9.25;;;;;;;-146.47;100.00;65468.63;4699529;30;20045;-70
2023/02/07 02:56:00;;;;;;;16.27;8.13;;;;;;;-146.47;100.00;65468.63;4700786;30;20083;-70
2023/02/07 02:58:46;;;;;;;19.65;8.85;;;;;;;-146.47;100.00;65468.63;4701251;30;20099;-70
2023/02/07 03:01:16;;;;;;;17.52;8.65;;;;;;;-146.47;100.00;65468.63;4704077;30;20076;-69
2023/02/07 03:03:54;;;;;;;23.20;10.10;;;;;;;-146.47;100.00;65468.63;4703667;30;20060;-69
2023/02/07 03:06:33;;;;;;;16.75;8.32;;;;;;;-146.47;100.00;65468.63;4709841;30;20044;-70
2023/02/07 03:09:15;;;;;;;18.85;8.57;;;;;;;-146.47;100.00;65468.63;4706517;30;20041;-69
2023/02/07 03:11:52;;;;;;;20.70;8.45;;;;;;;-146.47;100.00;65468.63;4706111;30;20129;-70
2023/02/07 03:14:42;;;;;;;15.90;7.93;;;;;;;-146.47;100.00;65468.63;4715708;30;20426;-70
2023/02/07 03:17:21;;;;;;;23.20;10.27;;;;;;;-146.47;100.00;65468.63;4703014;30;20053;-71
2023/02/07 03:20:10;;;;;;;16.05;8.68;;;;;;;-146.47;100.00;65468.63;4698798;30;20064;-71
2023/02/07 03:22:36;;;;;;;18.42;8.65;;;;;;;-146.47;100.00;65468.63;4708128;30;20658;-71
2023/02/07 03:25:04;;;;;;;18.40;8.98;;;;;;;-146.47;100.00;65468.63;4701541;30;20462;-71
2023/02/07 03:27:32;;;;;;;20.80;9.02;;;;;;;-146.47;100.00;65468.63;4698871;30;20119;-72
2023/02/07 03:30:00;;;;;;;26.05;9.50;;;;;;;-146.47;100.00;65468.63;4703117;30;20072;-71
2023/02/07 03:32:33;;;;;;;20.77;9.15;;;;;;;-146.47;100.00;65468.63;4703312;30;20115;-70
2023/02/07 03:35:08;;;;;;;16.58;9.57;;;;;;;-146.47;100.00;65468.63;4702230;30;20426;-70
2023/02/07 03:37:35;;;;;;;20.45;8.52;;;;;;;-146.47;100.00;65468.63;4701097;30;20052;-71
2023/02/07 03:40:04;;;;;;;16.33;8.35;;;;;;;-146.47;100.00;65468.63;4703778;30;20076;-71
2023/02/07 03:42:34;;;;;;;17.00;8.63;;;;;;;-146.47;100.00;65468.63;4703691;30;20049;-71
2023/02/07 03:45:02;;;;;;;19.52;9.30;;;;;;;-146.47;100.00;65468.63;4704748;30;20057;-71
2023/02/07 03:47:28;;;;;;;24.33;9.23;;;;;;;-146.47;100.00;65468.63;4699811;30;20049;-71
2023/02/07 03:49:54;;;;;;;18.55;8.90;;;;;;;-146.47;100.00;65468.63;4712878;30;20408;-71
2023/02/07 03:52:19;;;;;;;21.20;9.20;;;;;;;-146.47;100.00;65468.63;4705678;30;20101;-71
2023/02/07 03:54:45;;;;;;;17.52;8.65;;;;;;;-146.47;100.00;65468.63;4711026;30;20049;-71
2023/02/07 03:57:11;;;;;;;19.02;8.52;;;;;;;-146.47;100.00;65468.63;4699716;30;20113;-71
2023/02/07 03:59:37;;;;;;;18.73;9.27;;;;;;;-146.47;100.00;65468.63;4702723;30;20049;-71
2023/02/07 04:02:02;;;;;;;18.50;9.55;;;;;;;-146.47;100.00;65468.63;4704472;30;20842;-71
2023/02/07 04:04:28;;;;;;;20.58;9.65;;;;;;;-146.47;100.00;65468.63;4699975;30;20518;-71
2023/02/07 04:06:54;;;;;;;19.33;9.60;;;;;;;-146.47;100.00;65468.63;4699627;30;20053;-71
2023/02/07 04:09:20;;;;;;;23.48;9.85;;;;;;;-146.47;100.00;65468.63;4697723;30;20045;-71
2023/02/07 04:11:49;;;;;;;21.20;9.65;;;;;;;-146.47;100.00;65468.63;4703112;30;20049;-71
2023/02/07 04:14:15;;;;;;;15.55;8.80;;;;;;;-146.47;100.00;65468.63;4705063;30;20503;-71
2023/02/07 04:16:40;;;;;;;19.33;8.85;;;;;;;-146.47;100.00;65468.63;4698710;30;20065;-71
2023/02/07 04:19:06;;;;;;;18.30;9.18;;;;;;;-146.47;100.00;65468.63;4709737;30;20060;-71
2023/02/07 04:21:31;;;;;;;20.52;9.27;;;;;;;-146.47;100.00;65468.63;4707189;30;20049;-71
2023/02/07 04:23:57;;;;;;;19.58;8.48;;;;;;;-146.47;100.00;65468.63;4700312;30;20111;-71
2023/02/07 04:26:23;;;;;;;22.38;10.10;;;;;;;-146.47;100.00;65468.63;4700788;30;20065;-71
2023/02/07 04:28:48;;;;;;;21.08;9.05;;;;;;;-146.47;100.00;65468.63;4702151;30;20136;-72
2023/02/07 04:31:14;;;;;;;19.45;9.00;;;;;;;-146.47;100.00;65468.63;4702039;30;20054;-71
2023/02/07 04:33:39;;;;;;;21.50;9.00;;;;;;;-146.47;100.00;65468.63;4700294;30;20048;-71
2023/02/07 04:36:05;;;;;;;18.52;9.02;;;;;;;-146.47;100.00;65468.63;4698363;30;20055;-71
2023/02/07 04:38:32;;;;;;;19.48;9.68;;;;;;;-146.47;100.00;65468.63;4710638;30;20052;-71
2023/02/07 04:40:59;;;;;;;17.35;9.57;;;;;;;-146.47;100.00;65468.63;4701341;30;20054;-71
2023/02/07 04:43:25;;;;;;;18.38;8.75;;;;;;;-146.47;100.00;65468.63;4700809;30;20570;-71
2023/02/07 04:45:50;;;;;;;15.68;9.02;;;;;;;-146.47;100.00;65468.63;4713414;30;20053;-71
2023/02/07 04:48:16;;;;;;;21.13;10.02;;;;;;;-146.47;100.00;65468.63;4704291;30;20052;-71
2023/02/07 04:50:41;;;;;;;20.85;10.07;;;;;;;-146.47;100.00;65468.63;4698118;30;20057;-72
2023/02/07 04:53:07;;;;;;;14.77;8.40;;;;;;;-146.47;100.00;65468.63;4701750;30;20149;-71
2023/02/07 04:55:34;;;;;;;19.30;9.35;;;;;;;-146.47;100.00;65468.63;4699109;30;20100;-71
2023/02/07 04:58:00;;;;;;;19.67;10.30;;;;;;;-146.47;100.00;65468.63;4698279;30;20053;-71
2023/02/07 05:00:25;;;;;;;19.67;9.65;;;;;;;-146.47;100.00;65468.63;4699270;30;20052;-71
2023/02/07 05:02:51;;;;;;;21.55;10.38;;;;;;;-146.47;100.00;65468.63;4699611;30;20080;-71
2023/02/07 05:05:17;;;;;;;18.35;9.23;;;;;;;-146.47;100.00;65468.63;4700553;30;20103;-71
2023/02/07 05:07:42;;;;;;;20.17;9.80;;;;;;;-146.47;100.00;65468.63;4700020;30;20045;-71
2023/02/07 05:10:08;;;;;;;22.55;10.10;;;;;;;-146.47;100.00;65468.63;4697244;30;20056;-72
2023/02/07 05:12:34;;;;;;;18.65;9.10;;;;;;;-146.47;100.00;65468.63;4704842;30;20049;-71
2023/02/07 05:14:59;;;;;;;25.55;10.63;;;;;;;-146.47;100.00;65468.63;4702712;30;20046;-71
2023/02/07 05:17:25;;;;;;;17.38;8.93;;;;;;;-146.47;100.00;65468.63;4696513;30;20054;-71
2023/02/07 05:19:50;;;;;;;24.00;10.75;;;;;;;-146.47;100.00;65468.63;4697268;30;20056;-71
2023/02/07 05:22:16;;;;;;;18.70;10.20;;;;;;;-146.47;100.00;65468.63;4698330;30;20076;-72
2023/02/07 05:24:42;;;;;;;16.67;8.70;;;;;;;-146.47;100.00;65468.63;4702221;30;20061;-71
2023/02/07 05:27:08;;;;;;;25.20;10.38;;;;;;;-146.47;100.00;65468.63;4703049;30;20511;-71
2023/02/07 05:29:34;;;;;;;23.65;9.93;;;;;;;-146.47;100.00;65468.63;4706398;30;20072;-71
2023/02/07 05:34:44;;;;;;;19.05;10.40;;;;;;;-146.47;100.00;65468.63;4702357;30;20441;-71
2023/02/07 05:37:09;;;;;;;27.38;10.68;;;;;;;-146.47;100.00;65468.63;4702305;30;20045;-72
2023/02/07 05:39:35;;;;;;;16.60;8.93;;;;;;;-146.47;100.00;65468.63;4704503;30;20076;-72
2023/02/07 05:42:00;;;;;;;17.52;9.48;;;;;;;-146.47;100.00;65468.63;4696934;30;20053;-72
2023/02/07 05:44:26;;;;;;;23.33;10.80;;;;;;;-146.47;100.00;65468.63;4697005;30;20060;-72
2023/02/07 05:46:51;;;;;;;17.00;9.23;;;;;;;-146.47;100.00;65468.63;4697056;30;20073;-72
2023/02/07 05:49:17;;;;;;;19.55;10.18;;;;;;;-146.47;100.00;65468.63;4706419;30;20057;-72
2023/02/07 05:51:43;;;;;;;17.65;9.52;;;;;;;-146.47;100.00;65468.63;4700051;30;20060;-73
2023/02/07 05:54:08;;;;;;;21.52;9.60;;;;;;;-146.47;100.00;65468.63;4710141;30;20486;-73
2023/02/07 05:56:34;;;;;;;24.27;11.18;;;;;;;-146.47;100.00;65468.63;4703512;30;20507;-71
2023/02/07 05:58:59;;;;;;;18.25;9.88;;;;;;;-146.47;100.00;65468.63;4708807;30;20057;-72
2023/02/07 06:01:25;;;;;;;22.77;11.18;;;;;;;-146.47;100.00;65468.63;4696628;30;20046;-72
2023/02/07 06:03:50;;;;;;;22.25;10.25;;;;;;;-146.47;100.00;65468.63;4711659;30;20052;-71
2023/02/07 06:06:16;;;;;;;23.90;9.88;;;;;;;-146.47;100.00;65468.63;4707111;30;20049;-71
2023/02/07 06:08:41;;;;;;;23.70;10.60;;;;;;;-146.47;100.00;65468.63;4698859;30;20060;-71
2023/02/07 06:11:07;;;;;;;20.45;10.25;;;;;;;-146.47;100.00;65468.63;4702141;30;20124;-72
2023/02/07 06:13:32;;;;;;;18.70;9.30;;;;;;;-146.47;100.00;65468.63;4705155;30;20491;-71
2023/02/07 06:15:58;;;;;;;20.63;9.77;;;;;;;-146.47;100.00;65468.63;4703859;30;20057;-72
2023/02/07 06:18:23;;;;;;;16.33;8.68;;;;;;;-146.47;100.00;65468.63;4709692;30;20109;-72
2023/02/07 06:20:50;;;;;;;18.98;10.02;;;;;;;-146.47;100.00;65468.63;4701820;30;20679;-71
2023/02/07 06:23:16;;;;;;;21.83;9.93;;;;;;;-146.47;100.00;65468.63;4698015;30;20052;-71
2023/02/07 06:25:41;;;;;;;19.98;9.70;;;;;;;-146.47;100.00;65468.63;4696543;30;20050;-71
2023/02/07 06:28:07;;;;;;;18.38;8.30;;;;;;;-146.47;100.00;65468.63;4701288;30;20069;-72
2023/02/07 06:30:32;;;;;;;20.27;9.18;;;;;;;-146.47;100.00;65468.63;4696681;30;20052;-72
2023/02/07 06:32:58;;;;;;;25.25;10.98;;;;;;;-146.47;100.00;65468.63;4706645;30;20506;-72
2023/02/07 06:35:23;;;;;;;22.05;10.60;;;;;;;-146.47;100.00;65468.63;4697338;30;20057;-72
2023/02/07 06:37:49;;;;;;;16.55;8.75;;;;;;;-146.47;100.00;65468.63;4696977;30;20061;-73
2023/02/07 06:40:15;;;;;;;23.27;10.18;;;;;;;-146.47;100.00;65468.63;4706247;30;20068;-72
2023/02/07 06:42:40;;;;;;;20.92;9.75;;;;;;;-146.47;100.00;65468.63;4698781;30;20049;-72
2023/02/07 06:45:06;;;;;;;25.23;10.40;;;;;;;-146.47;100.00;65468.63;4699006;30;20517;-72
2023/02/07 06:47:32;;;;;;;20.25;9.82;;;;;;;-146.47;100.00;65468.63;4707249;30;20048;-73
2023/02/07 06:49:57;;;;;;;19.38;8.45;;;;;;;-146.47;100.00;65468.63;4703220;30;20809;-72
2023/02/07 06:52:23;;;;;;;23.30;9.43;;;;;;;-146.47;100.00;65468.63;4697371;30;20066;-73
2023/02/07 06:54:49;;;;;;;21.83;9.48;;;;;;;-146.47;100.00;65468.63;4697796;30;20081;-71
2023/02/07 06:57:14;;;;;;;20.52;9.40;;;;;;;-146.47;100.00;65468.63;4696613;30;20053;-71
2023/02/07 06:59:40;;;;;;;19.77;9.20;;;;;;;-146.47;100.00;65468.63;4702309;30;20065;-71
2023/02/07 07:02:05;;;;;;;20.88;9.73;;;;;;;-146.47;100.00;65468.63;4705235;30;21433;-75
2023/02/07 07:04:31;;;;;;;17.73;9.63;;;;;;;-146.47;100.00;65468.63;4705392;30;20053;-70
2023/02/07 07:06:57;;;;;;;22.33;8.18;;;;;;;-146.47;100.00;65468.63;4710131;30;20053;-71
2023/02/07 07:09:23;;;;;;;15.55;8.70;;;;;;;-146.47;100.00;65468.63;4705620;30;20076;-71
2023/02/07 07:11:48;;;;;;;19.15;8.70;;;;;;;-146.47;100.00;65468.63;4701147;30;20049;-72
2023/02/07 07:14:14;;;;;;;20.33;9.98;;;;;;;-146.47;100.00;65468.63;4697940;30;20132;-71
2023/02/07 07:16:39;;;;;;;19.10;9.15;;;;;;;-146.47;100.00;65468.63;4702934;30;20046;-71
2023/02/07 07:19:05;;;;;;;16.48;8.98;;;;;;;-146.47;100.00;65468.63;4694594;30;20050;-72
2023/02/07 07:21:32;;;;;;;19.02;9.35;;;;;;;-146.47;100.00;65468.63;4706469;30;20069;-73
2023/02/07 07:23:57;;;;;;;22.15;9.48;;;;;;;-146.47;100.00;65468.63;4698934;30;20053;-72
2023/02/07 07:26:23;;;;;;;19.40;9.18;;;;;;;-146.47;100.00;65468.63;4699201;30;20132;-73
2023/02/07 07:28:48;;;;;;;23.13;11.73;;;;;;;-146.47;100.00;65468.63;4706674;30;20065;-72
2023/02/07 07:31:14;;;;;;;17.65;8.15;;;;;;;-146.47;100.00;65468.63;4706665;30;20053;-72
2023/02/07 07:33:40;;;;;;;21.02;9.85;;;;;;;-146.47;100.00;65468.63;4706636;30;20057;-73
2023/02/07 07:36:06;;;;;;;17.40;8.52;;;;;;;-146.47;100.00;65468.63;4701972;30;20577;-74
2023/02/07 07:38:32;;;;;;;20.77;7.75;;;;;;;-146.47;100.00;65468.63;4709131;30;20045;-72
2023/02/07 07:40:58;;;;;;;21.13;10.23;;;;;;;-146.47;100.00;65468.63;4705697;30;20057;-74
2023/02/07 07:43:25;;;;;;;25.30;8.55;;;;;;;-146.47;100.00;65468.63;4699259;30;20541;-73
2023/02/07 07:45:56;;;;;;;17.65;9.50;;;;;;;-146.47;100.00;65468.63;4698987;30;20037;-74
2023/02/07 07:48:23;;;;;;;20.02;9.20;;;;;;;-146.47;100.00;65468.63;4698313;30;20046;-72
2023/02/07 07:50:49;;;;;;;18.15;8.55;;;;;;;-146.47;100.00;65468.63;4701473;30;20057;-73
2023/02/07 07:53:15;;;;;;;17.05;8.73;;;;;;;-146.47;100.00;65468.63;4698617;30;20053;-74
2023/02/07 07:55:41;;;;;;;18.63;9.40;;;;;;;-146.47;100.00;65468.63;4702705;30;20427;-72
2023/02/07 07:58:07;;;;;;;19.42;10.55;;;;;;;-146.47;100.00;65468.63;4709604;30;20438;-72
2023/02/07 08:00:32;;;;;;;18.27;9.27;;;;;;;-146.47;100.00;65468.63;4704569;30;20048;-72
2023/02/07 08:02:58;;;;;;;14.48;7.07;;;;;;;-146.47;100.00;65468.63;4708674;30;20664;-74
2023/02/07 08:05:24;;;;;;;19.85;9.68;;;;;;;-146.47;100.00;65468.63;4705342;30;20064;-71
2023/02/07 08:07:49;;;;;;;16.52;9.25;;;;;;;-146.47;100.00;65468.63;4708629;30;20064;-71
2023/02/07 08:10:15;;;;;;;19.75;8.60;;;;;;;-146.47;100.00;65468.63;4702224;30;20045;-73
2023/02/07 08:12:41;;;;;;;24.85;9.63;;;;;;;-146.47;100.00;65468.63;4702467;30;20111;-72
2023/02/07 08:15:08;;;;;;;17.10;8.30;;;;;;;-146.47;100.00;65468.63;4702126;30;20042;-71
2023/02/07 08:17:36;;;;;;;26.23;10.25;;;;;;;-146.47;100.00;65468.63;4714480;30;20051;-71
2023/02/07 08:20:02;;;;;;;18.48;9.82;;;;;;;-146.47;100.00;65468.63;4708237;30;20060;-72
2023/02/07 08:22:29;;;;;;;18.30;9.57;;;;;;;-146.47;100.00;65468.63;4703558;30;20052;-74
2023/02/07 08:24:54;;;;;;;17.85;9.27;;;;;;;-146.47;100.00;65468.63;4701272;30;20478;-73
2023/02/07 08:27:20;;;;;;;23.75;10.13;;;;;;;-146.47;100.00;65468.63;4706697;30;20056;-73
2023/02/07 08:29:45;;;;;;;19.50;9.05;;;;;;;-146.47;100.00;65468.63;4697853;30;20054;-73
2023/02/07 08:32:12;;;;;;;22.90;9.55;;;;;;;-146.47;100.00;65468.63;4696942;30;20046;-73
2023/02/07 08:34:38;;;;;;;22.40;10.45;;;;;;;-146.47;100.00;65468.63;4701083;30;20427;-73
2023/02/07 08:37:05;;;;;;;17.98;10.27;;;;;;;-146.47;100.00;65468.63;4698728;30;20041;-74
2023/02/07 08:39:31;;;;;;;18.48;10.07;;;;;;;-146.47;100.00;65468.63;4699190;30;21596;-72
2023/02/07 08:41:57;;;;;;;26.02;9.13;;;;;;;-146.47;100.00;65468.63;4697329;30;20056;-71
2023/02/07 08:44:22;;;;;;;17.30;9.10;;;;;;;-146.47;100.00;65468.63;4702786;30;20164;-73
2023/02/07 08:46:48;;;;;;;19.27;9.32;;;;;;;-146.47;100.00;65468.63;4702488;30;20061;-72
2023/02/07 08:49:13;;;;;;;19.65;9.57;;;;;;;-146.47;100.00;65468.63;4705500;30;20049;-73
2023/02/07 08:51:41;;;;;;;21.70;10.35;;;;;;;-146.47;100.00;65468.63;4702249;30;20045;-73
2023/02/07 08:54:07;;;;;;;21.08;10.25;;;;;;;-146.47;100.00;65468.63;4713271;30;20044;-73
2023/02/07 08:56:32;;;;;;;20.33;9.23;;;;;;;-146.47;100.00;65468.63;4706819;30;20049;-71
2023/02/07 08:58:58;;;;;;;26.08;10.43;;;;;;;-146.47;100.00;65468.63;4701769;30;20064;-71
2023/02/07 09:01:24;;;;;;;21.85;10.35;;;;;;;-146.47;100.00;65468.63;4695139;30;20053;-70
2023/02/07 09:03:50;;;;;;;18.13;9.73;;;;;;;-146.47;100.00;65468.63;4700257;30;20069;-71
2023/02/07 09:06:15;;;;;;;19.58;9.73;;;;;;;-146.47;100.00;65468.63;4699882;30;20117;-70
2023/02/07 09:08:41;;;;;;;19.25;9.25;;;;;;;-146.47;100.00;65468.63;4703724;30;20441;-71
2023/02/07 09:11:06;;;;;;;19.95;10.07;;;;;;;-146.47;100.00;65468.63;4700838;30;20115;-71
2023/02/07 09:13:32;;;;;;;16.27;8.23;;;;;;;-146.47;100.00;65468.63;4700083;30;20056;-71
2023/02/07 09:15:58;;;;;;;22.98;10.13;;;;;;;-146.47;100.00;65468.63;4699426;30;20061;-71
2023/02/07 09:18:24;;;;;;;24.00;10.20;;;;;;;-146.47;100.00;65468.63;4702934;30;20095;-71
2023/02/07 09:20:51;;;;;;;19.75;9.88;;;;;;;-146.47;100.00;65468.63;4701075;30;20270;-72
2023/02/07 09:23:22;;;;;;;30.02;10.15;;;;;;;-146.47;100.00;65468.63;4708388;30;20053;-71
2023/02/07 09:25:51;;;;;;;18.67;9.00;;;;;;;-146.47;100.00;65468.63;4706382;30;20061;-73
2023/02/07 09:28:17;;;;;;;20.45;9.27;;;;;;;-146.47;100.00;65468.63;4701682;30;20045;-72
2023/02/07 09:30:45;;;;;;;21.42;11.05;;;;;;;-146.47;100.00;65468.63;4701256;30;20053;-71
2023/02/07 09:33:12;;;;;;;21.85;8.85;;;;;;;-146.47;100.00;65468.63;4703788;30;20054;-72
2023/02/07 09:35:39;;;;;;;22.63;10.07;;;;;;;-146.47;100.00;65468.63;4702470;30;20498;-72
2023/02/07 09:38:05;;;;;;;20.83;9.93;;;;;;;-146.47;100.00;65468.63;4700650;30;20056;-72
2023/02/07 09:40:33;;;;;;;26.33;9.60;;;;;;;-146.47;100.00;65468.63;4699678;30;20037;-73
2023/02/07 09:43:13;;;;;;;18.42;9.13;;;;;;;-146.47;100.00;65468.63;4697840;30;20060;-73
2023/02/07 09:45:44;;;;;;;18.77;10.18;;;;;;;-146.47;100.00;65468.63;4700035;30;20049;-72
2023/02/07 09:48:18;;;;;;;23.23;10.73;;;;;;;-146.47;100.00;65468.63;4698434;30;20580;-72
2023/02/07 09:50:56;;;;;;;30.63;11.27;;;;;;;-146.47;100.00;65468.63;4696613;30;20053;-71
2023/02/07 09:53:33;;;;;;;20.52;9.27;;;;;;;-146.47;100.00;65468.63;4699990;30;20120;-72
2023/02/07 09:56:01;;;;;;;22.48;9.88;;;;;;;-146.47;100.00;65468.63;4705908;30;20049;-72
2023/02/07 09:58:36;;;;;;;23.30;10.95;;;;;;;-146.47;100.00;65468.63;4713099;30;20045;-72
2023/02/07 10:01:37;;;;;;;20.73;10.60;;;;;;;-146.47;100.00;65468.63;4702681;30;20045;-72
2023/02/07 10:04:21;;;;;;;19.15;10.38;;;;;;;-146.47;100.00;65468.63;4707362;30;20106;-72
2023/02/07 10:06:52;;;;;;;24.30;9.30;;;;;;;-146.47;100.00;65468.63;4701092;30;20053;-72
2023/02/07 10:09:25;;;;;;;19.33;10.70;;;;;;;-146.47;100.00;65468.63;4698033;30;20075;-73
2023/02/07 10:12:26;;;;;;;18.03;10.67;;;;;;;-146.47;100.00;65468.63;4700492;30;20046;-75
2023/02/07 10:15:09;;;;;;;30.92;9.35;;;;;;;-146.47;100.00;65468.63;4702536;30;20338;-76
2023/02/07 10:18:03;;;;;;;18.65;9.30;;;;;;;-146.47;100.00;65468.63;4701089;30;20045;-77
2023/02/07 10:20:35;;;;;;;18.90;9.00;;;;;;;-146.47;100.00;65468.63;4710134;30;20088;-79
2023/02/07 10:23:35;;;;;;;21.38;9.90;;;;;;;-146.47;100.00;65468.63;4719633;30;20064;-81
2023/02/07 10:26:36;;;;;;;18.95;10.30;;;;;;;-146.47;100.00;65468.63;4737084;30;20522;-80
2023/02/07 10:29:20;;;;;;;18.90;10.30;;;;;;;-146.47;100.00;65468.63;4699591;30;20060;-75
2023/02/07 10:31:48;;;;;;;15.90;9.55;;;;;;;-146.47;100.00;65468.63;4705833;30;20062;-75
2023/02/07 10:34:24;;;;;;;18.67;10.52;;;;;;;-146.47;100.00;65468.63;4701506;30;20069;-78
2023/02/07 10:36:51;;;;;;;17.67;9.65;;;;;;;-146.47;100.00;65468.63;4699044;30;20060;-78
2023/02/07 10:39:24;;;;;;;20.25;10.93;;;;;;;-146.47;100.00;65468.63;4702941;30;20049;-78
2023/02/07 10:41:54;;;;;;;19.27;9.80;;;;;;;-146.47;100.00;65468.63;4704786;30;20416;-79
2023/02/07 10:44:20;;;;;;;18.95;9.85;;;;;;;-146.47;100.00;65468.63;4700865;30;20050;-78
2023/02/07 10:47:00;;;;;;;19.08;9.88;;;;;;;-146.47;100.00;65468.63;4699024;30;20052;-79
2023/02/07 10:49:29;;;;;;;17.10;9.52;;;;;;;-146.47;100.00;65468.63;4702422;30;20491;-79
2023/02/07 10:52:05;;;;;;;19.52;9.73;;;;;;;-146.47;100.00;65468.63;4706773;30;20125;-80
2023/02/07 10:54:49;;;;;;;17.58;10.15;;;;;;;-146.47;100.00;65468.63;4714935;30;20054;-80
2023/02/07 10:57:17;;;;;;;21.70;9.95;;;;;;;-146.47;100.00;65468.63;4714345;30;20474;-79
2023/02/07 10:59:47;;;;;;;20.60;10.38;;;;;;;-146.47;100.00;65468.63;4718236;30;20628;-79
2023/02/07 11:02:30;;;;;;;18.60;9.43;;;;;;;-146.47;100.00;65468.63;4719827;30;20052;-79
2023/02/07 11:04:59;;;;;;;23.45;9.52;;;;;;;-146.47;100.00;65468.63;4732019;30;20417;-79
2023/02/07 11:07:25;;;;;;;18.90;10.38;;;;;;;-146.47;100.00;65468.63;4720154;30;20495;-81
2023/02/07 11:09:51;;;;;;;17.73;9.85;;;;;;;-146.47;100.00;65468.63;4717737;30;20053;-80
2023/02/07 11:12:24;;;;;;;20.60;9.88;;;;;;;-146.47;100.00;65468.63;4709109;30;20123;-81